createdAt,value
2018-12-06T00:00:26.013Z,2.10
2018-12-06T00:02:54.463Z,2.10
2018-12-06T00:05:22.850Z,2.00
2018-12-06T00:08:18.338Z,2.00
2018-12-06T00:10:47.206Z,2.00
2018-12-06T00:13:15.655Z,2.00
2018-12-06T00:15:44.042Z,2.00
2018-12-06T00:18:12.450Z,2.00
2018-12-06T00:20:40.830Z,2.00
2018-12-06T00:23:09.227Z,2.10
2018-12-06T00:25:37.616Z,2.00
2018-12-06T00:28:06.034Z,2.00
2018-12-06T00:30:40.829Z,2.00
2018-12-06T00:33:09.422Z,2.00
2018-12-06T00:35:37.835Z,2.00
2018-12-06T00:38:06.290Z,2.00
2018-12-06T00:40:34.854Z,2.00
2018-12-06T00:43:03.259Z,2.00
2018-12-06T00:45:31.723Z,2.00
2018-12-06T00:48:00.156Z,2.00
2018-12-06T00:50:28.826Z,2.10
2018-12-06T00:52:57.299Z,2.10
2018-12-06T00:55:25.714Z,2.10
2018-12-06T00:57:54.133Z,2.10
2018-12-06T01:00:22.687Z,2.10
2018-12-06T01:02:51.103Z,2.10
2018-12-06T01:05:19.522Z,2.10
2018-12-06T01:07:47.963Z,2.10
2018-12-06T01:10:16.371Z,2.10
2018-12-06T01:12:44.904Z,2.10
2018-12-06T01:15:13.475Z,2.10
2018-12-06T01:17:41.890Z,2.10
2018-12-06T01:20:10.297Z,2.10
2018-12-06T01:22:38.690Z,2.10
2018-12-06T01:25:07.357Z,2.10
2018-12-06T01:27:35.758Z,2.20
2018-12-06T01:30:05.068Z,2.20
2018-12-06T01:32:33.466Z,2.10
2018-12-06T01:35:01.878Z,2.10
2018-12-06T01:37:30.277Z,2.10
2018-12-06T01:39:58.698Z,2.10
2018-12-06T01:42:27.096Z,2.10
2018-12-06T01:44:55.523Z,2.10
2018-12-06T01:47:23.954Z,2.10
2018-12-06T01:49:52.606Z,2.10
2018-12-06T01:52:21.010Z,2.10
2018-12-06T01:54:49.421Z,2.10
2018-12-06T01:57:17.815Z,2.10
2018-12-06T01:59:46.234Z,2.10
2018-12-06T02:02:14.739Z,2.20
2018-12-06T02:04:43.158Z,2.20
2018-12-06T02:07:11.606Z,2.20
2018-12-06T02:09:40.034Z,2.20
2018-12-06T02:12:08.482Z,2.20
2018-12-06T02:14:38.824Z,2.20
2018-12-06T02:17:07.335Z,2.20
2018-12-06T02:19:35.762Z,2.20
2018-12-06T02:22:04.302Z,2.20
2018-12-06T02:24:32.698Z,2.10
2018-12-06T02:27:01.235Z,2.10
2018-12-06T02:30:01.287Z,2.10
2018-12-06T02:32:29.800Z,2.10
2018-12-06T02:34:58.268Z,2.10
2018-12-06T02:37:26.673Z,2.10
2018-12-06T02:39:55.067Z,2.20
2018-12-06T02:42:23.491Z,2.10
2018-12-06T02:44:51.887Z,2.10
2018-12-06T02:47:20.303Z,2.10
2018-12-06T02:49:48.725Z,2.10
2018-12-06T02:52:17.175Z,2.10
2018-12-06T02:54:45.574Z,2.10
2018-12-06T02:57:13.987Z,2.20
2018-12-06T02:59:42.390Z,2.20
2018-12-06T03:02:10.809Z,2.20
2018-12-06T03:04:39.215Z,2.20
2018-12-06T03:07:07.762Z,2.30
2018-12-06T03:09:36.162Z,2.30
2018-12-06T03:12:04.823Z,2.30
2018-12-06T03:14:33.335Z,2.30
2018-12-06T03:17:01.761Z,2.30
2018-12-06T03:19:30.159Z,2.30
2018-12-06T03:21:58.582Z,2.30
2018-12-06T03:24:26.976Z,2.30
2018-12-06T03:26:55.393Z,2.30
2018-12-06T03:29:23.791Z,2.30
2018-12-06T03:31:52.221Z,2.30
2018-12-06T03:34:20.622Z,2.40
2018-12-06T03:36:49.042Z,2.40
2018-12-06T03:39:17.443Z,2.40
2018-12-06T03:41:45.870Z,2.40
2018-12-06T03:44:14.264Z,2.40
2018-12-06T03:46:42.682Z,2.30
2018-12-06T03:49:11.086Z,2.30
2018-12-06T03:51:39.514Z,2.30
2018-12-06T03:54:07.907Z,2.30
2018-12-06T03:56:36.447Z,2.30
2018-12-06T03:59:04.835Z,2.30
2018-12-06T04:01:33.246Z,2.40
2018-12-06T04:04:01.640Z,2.40
2018-12-06T04:06:30.082Z,2.30
2018-12-06T04:08:58.463Z,2.40
2018-12-06T04:11:26.863Z,2.40
2018-12-06T04:13:55.270Z,2.40
2018-12-06T04:16:23.671Z,2.40
2018-12-06T04:18:52.115Z,2.40
2018-12-06T04:21:20.517Z,2.40
2018-12-06T04:23:48.922Z,2.40
2018-12-06T04:26:17.375Z,2.40
2018-12-06T04:28:45.779Z,2.40
2018-12-06T04:31:14.179Z,2.40
2018-12-06T04:33:42.580Z,2.50
2018-12-06T04:36:10.988Z,2.50
2018-12-06T04:38:39.391Z,2.50
2018-12-06T04:41:07.780Z,2.50
2018-12-06T04:43:36.178Z,2.50
2018-12-06T04:46:04.618Z,2.50
2018-12-06T04:48:33.098Z,2.50
2018-12-06T04:51:01.628Z,2.50
2018-12-06T04:53:30.089Z,2.50
2018-12-06T04:55:58.502Z,2.50
2018-12-06T04:58:26.946Z,2.50
2018-12-06T05:00:55.371Z,2.60
2018-12-06T05:03:23.811Z,2.60
2018-12-06T05:05:52.242Z,2.60
2018-12-06T05:08:20.677Z,2.50
2018-12-06T05:10:49.115Z,2.60
2018-12-06T05:13:17.577Z,2.60
2018-12-06T05:15:46.005Z,2.60
2018-12-06T05:18:14.446Z,2.60
2018-12-06T05:20:42.872Z,2.60
2018-12-06T05:23:11.310Z,2.60
2018-12-06T05:25:39.739Z,2.50
2018-12-06T05:28:08.162Z,2.60
2018-12-06T05:30:36.602Z,2.50
2018-12-06T05:33:05.054Z,2.60
2018-12-06T05:35:33.507Z,2.60
2018-12-06T05:38:01.933Z,2.60
2018-12-06T05:40:30.371Z,2.60
2018-12-06T05:42:58.854Z,2.60
2018-12-06T05:45:27.293Z,2.60
2018-12-06T05:47:55.773Z,2.60
2018-12-06T05:50:24.275Z,2.60
2018-12-06T05:52:52.703Z,2.50
2018-12-06T05:55:21.161Z,2.50
2018-12-06T05:57:49.587Z,2.50
2018-12-06T06:00:18.027Z,2.50
2018-12-06T06:02:46.433Z,2.60
2018-12-06T06:05:14.896Z,2.60
2018-12-06T06:07:43.319Z,2.60
2018-12-06T06:10:11.763Z,2.60
2018-12-06T06:12:40.250Z,2.60
2018-12-06T06:15:08.723Z,2.60
2018-12-06T06:17:37.150Z,2.60
2018-12-06T06:20:05.911Z,2.60
2018-12-06T06:22:34.342Z,2.60
2018-12-06T06:25:02.908Z,2.60
2018-12-06T06:27:31.326Z,2.60
2018-12-06T06:29:59.766Z,2.60
2018-12-06T06:32:28.206Z,2.60
2018-12-06T06:34:56.667Z,2.60
2018-12-06T06:37:25.095Z,2.60
2018-12-06T06:39:53.521Z,2.70
2018-12-06T06:42:22.090Z,2.70
2018-12-06T06:44:50.511Z,2.70
2018-12-06T06:47:18.958Z,2.70
2018-12-06T06:49:47.387Z,2.70
2018-12-06T06:52:15.813Z,2.60
2018-12-06T06:54:44.231Z,2.60
2018-12-06T06:57:12.671Z,2.70
2018-12-06T06:59:41.078Z,2.70
2018-12-06T07:02:09.566Z,2.70
2018-12-06T07:04:37.979Z,2.70
2018-12-06T07:07:06.414Z,2.70
2018-12-06T07:09:34.830Z,2.70
2018-12-06T07:12:03.264Z,2.70
2018-12-06T07:14:31.678Z,2.70
2018-12-06T07:17:00.111Z,2.80
2018-12-06T07:19:28.527Z,2.80
2018-12-06T07:21:57.090Z,2.80
2018-12-06T07:24:25.622Z,2.80
2018-12-06T07:26:54.171Z,2.80
2018-12-06T07:29:22.584Z,2.70
2018-12-06T07:31:51.072Z,2.70
2018-12-06T07:34:19.495Z,2.70
2018-12-06T07:36:47.958Z,2.80
2018-12-06T07:39:16.407Z,2.80
2018-12-06T07:41:44.825Z,2.80
2018-12-06T07:44:13.231Z,2.80
2018-12-06T07:46:42.000Z,2.80
2018-12-06T07:49:10.426Z,2.80
2018-12-06T07:51:38.826Z,2.80
2018-12-06T07:54:07.247Z,2.90
2018-12-06T07:56:35.790Z,2.90
2018-12-06T07:59:04.227Z,2.90
2018-12-06T08:01:32.610Z,2.90
2018-12-06T08:04:01.019Z,2.90
2018-12-06T08:06:29.425Z,2.90
2018-12-06T08:08:57.826Z,3.00
2018-12-06T08:11:26.206Z,3.00
2018-12-06T08:13:54.607Z,3.00
2018-12-06T08:16:22.990Z,3.00
2018-12-06T08:18:51.395Z,3.10
2018-12-06T08:21:19.799Z,3.10
2018-12-06T08:23:48.302Z,3.20
2018-12-06T08:26:16.687Z,3.20
2018-12-06T08:28:45.082Z,3.20
2018-12-06T08:31:13.461Z,3.20
2018-12-06T08:33:41.870Z,3.20
2018-12-06T08:36:10.290Z,3.20
2018-12-06T08:38:38.686Z,3.20
2018-12-06T08:41:07.098Z,3.30
2018-12-06T08:43:44.614Z,3.30
2018-12-06T08:46:13.358Z,3.40
2018-12-06T08:48:41.823Z,3.40
2018-12-06T08:51:10.335Z,3.40
2018-12-06T08:53:38.782Z,3.50
2018-12-06T08:56:07.281Z,3.40
2018-12-06T08:58:35.742Z,3.40
2018-12-06T09:01:04.243Z,3.40
2018-12-06T09:03:32.757Z,3.50
2018-12-06T09:06:01.209Z,3.50
2018-12-06T09:08:29.646Z,3.50
2018-12-06T09:10:58.226Z,3.50
2018-12-06T09:13:26.665Z,3.60
2018-12-06T09:15:55.146Z,3.60
2018-12-06T09:18:23.586Z,3.70
2018-12-06T09:20:52.046Z,3.70
2018-12-06T09:23:20.482Z,3.90
2018-12-06T09:25:48.963Z,4.00
2018-12-06T09:28:17.442Z,4.10
2018-12-06T09:30:46.213Z,4.00
2018-12-06T09:33:14.647Z,4.00
2018-12-06T09:35:44.697Z,4.00
2018-12-06T09:38:13.141Z,4.10
2018-12-06T09:40:41.842Z,4.20
2018-12-06T09:43:10.378Z,4.30
2018-12-06T09:45:39.125Z,4.40
2018-12-06T09:48:07.581Z,4.60
2018-12-06T09:50:36.042Z,4.60
2018-12-06T09:53:04.659Z,4.70
2018-12-06T09:55:33.126Z,4.70
2018-12-06T09:58:01.555Z,4.70
2018-12-06T10:00:30.062Z,4.70
2018-12-06T10:02:58.559Z,4.70
2018-12-06T10:05:27.008Z,4.70
2018-12-06T10:07:55.434Z,4.70
2018-12-06T10:10:23.882Z,4.70
2018-12-06T10:12:52.309Z,4.70
2018-12-06T10:15:20.803Z,4.70
2018-12-06T10:17:49.247Z,4.80
2018-12-06T10:20:17.677Z,4.90
2018-12-06T10:22:46.121Z,5.00
2018-12-06T10:25:14.557Z,5.00
2018-12-06T10:27:43.005Z,5.00
2018-12-06T10:30:11.439Z,5.00
2018-12-06T10:32:39.883Z,5.00
2018-12-06T10:35:08.454Z,5.00
2018-12-06T10:37:36.906Z,5.00
2018-12-06T10:40:05.743Z,5.00
2018-12-06T10:42:34.198Z,5.00
2018-12-06T10:45:02.631Z,5.10
2018-12-06T10:47:31.087Z,5.10
2018-12-06T10:49:59.551Z,5.10
2018-12-06T10:52:28.008Z,5.10
2018-12-06T10:54:56.478Z,5.10
2018-12-06T10:57:24.950Z,5.10
2018-12-06T10:59:53.381Z,5.10
2018-12-06T11:02:32.157Z,5.10
2018-12-06T11:05:00.588Z,5.10
2018-12-06T11:07:29.062Z,5.00
2018-12-06T11:11:56.298Z,5.00
2018-12-06T11:14:24.722Z,4.90
2018-12-06T11:16:53.270Z,4.90
2018-12-06T11:19:21.693Z,4.90
2018-12-06T11:21:50.239Z,4.90
2018-12-06T11:24:19.465Z,4.90
2018-12-06T11:26:48.288Z,5.00
2018-12-06T11:29:16.844Z,5.00
2018-12-06T11:31:45.449Z,5.00
2018-12-06T11:34:13.884Z,5.10
2018-12-06T11:36:42.338Z,5.10
2018-12-06T11:39:10.775Z,5.10
2018-12-06T11:41:42.902Z,5.10
2018-12-06T11:44:09.679Z,5.10
2018-12-06T11:46:38.140Z,5.10
2018-12-06T11:49:06.707Z,5.10
2018-12-06T11:51:35.357Z,5.20
2018-12-06T11:54:03.914Z,5.20
2018-12-06T11:56:32.338Z,5.20
2018-12-06T11:59:00.822Z,5.30
2018-12-06T12:01:29.242Z,5.30
2018-12-06T12:03:57.685Z,5.30
2018-12-06T12:06:26.103Z,5.40
2018-12-06T12:08:54.549Z,5.40
2018-12-06T12:11:22.978Z,5.50
2018-12-06T12:13:51.539Z,5.60
2018-12-06T12:16:19.974Z,5.70
2018-12-06T12:18:48.412Z,5.80
2018-12-06T12:21:16.854Z,5.90
2018-12-06T12:23:45.319Z,5.90
2018-12-06T12:26:13.894Z,5.90
2018-12-06T12:28:42.659Z,6.00
2018-12-06T12:31:11.077Z,6.00
2018-12-06T12:33:39.678Z,6.10
2018-12-06T12:36:08.196Z,6.10
2018-12-06T12:38:37.122Z,6.10
2018-12-06T12:41:05.569Z,6.00
2018-12-06T12:43:35.580Z,6.00
2018-12-06T12:46:04.066Z,6.00
2018-12-06T12:48:32.533Z,6.00
2018-12-06T12:51:00.957Z,6.00
2018-12-06T12:53:29.398Z,6.00
2018-12-06T12:55:57.818Z,5.90
2018-12-06T12:58:26.267Z,5.90
2018-12-06T13:00:54.686Z,5.90
2018-12-06T13:03:23.110Z,5.90
2018-12-06T13:05:51.629Z,5.80
2018-12-06T13:08:20.058Z,5.80
2018-12-06T13:10:48.508Z,5.80
2018-12-06T13:13:16.923Z,5.80
2018-12-06T13:15:45.374Z,5.80
2018-12-06T13:18:13.893Z,5.70
2018-12-06T13:20:42.438Z,5.70
2018-12-06T13:23:10.867Z,5.70
2018-12-06T13:25:39.321Z,5.70
2018-12-06T13:28:07.747Z,5.60
2018-12-06T13:30:36.218Z,5.60
2018-12-06T13:33:04.646Z,5.70
2018-12-06T13:35:33.214Z,5.70
2018-12-06T13:38:01.643Z,5.70
2018-12-06T13:40:30.086Z,5.70
2018-12-06T13:42:58.504Z,5.70
2018-12-06T13:45:26.954Z,5.80
2018-12-06T13:47:55.386Z,5.70
2018-12-06T13:50:24.051Z,5.80
2018-12-06T13:52:52.463Z,5.70
2018-12-06T13:55:20.903Z,5.60
2018-12-06T13:57:49.305Z,5.60
2018-12-06T14:00:18.362Z,5.60
2018-12-06T14:02:46.794Z,5.60
2018-12-06T14:05:15.226Z,5.50
2018-12-06T14:07:43.642Z,5.50
2018-12-06T14:10:12.217Z,5.50
2018-12-06T14:12:40.643Z,5.50
2018-12-06T14:15:09.183Z,5.50
2018-12-06T14:17:37.605Z,5.50
2018-12-06T14:20:07.671Z,5.50
2018-12-06T14:22:36.110Z,5.50
2018-12-06T14:25:04.867Z,5.50
2018-12-06T14:27:33.340Z,5.50
2018-12-06T14:30:01.749Z,5.50
2018-12-06T14:32:30.188Z,5.50
2018-12-06T14:34:58.598Z,5.50
2018-12-06T14:37:27.047Z,5.50
2018-12-06T14:39:55.553Z,5.50
2018-12-06T14:42:24.005Z,5.50
2018-12-06T14:44:52.432Z,5.50
2018-12-06T14:47:20.861Z,5.50
2018-12-06T14:49:49.298Z,5.50
2018-12-06T14:52:17.727Z,5.50
2018-12-06T14:54:46.133Z,5.50
2018-12-06T14:57:14.562Z,5.50
2018-12-06T14:59:42.973Z,5.50
2018-12-06T15:02:11.414Z,5.50
2018-12-06T15:04:39.887Z,5.50
2018-12-06T15:07:08.314Z,5.50
2018-12-06T15:09:36.766Z,5.50
2018-12-06T15:12:05.306Z,5.60
2018-12-06T15:14:33.718Z,5.60
2018-12-06T15:17:02.158Z,5.60
2018-12-06T15:19:30.562Z,5.60
2018-12-06T15:21:59.045Z,5.70
2018-12-06T15:24:27.450Z,5.70
2018-12-06T15:26:55.977Z,5.70
2018-12-06T15:29:24.406Z,5.70
2018-12-06T15:31:52.818Z,5.70
2018-12-06T15:34:21.249Z,5.80
2018-12-06T15:36:49.658Z,5.70
2018-12-06T15:39:18.094Z,5.80
2018-12-06T15:41:46.499Z,5.70
2018-12-06T15:44:14.927Z,5.70
2018-12-06T15:46:43.334Z,5.80
2018-12-06T15:49:11.813Z,5.80
2018-12-06T15:51:40.243Z,5.80
2018-12-06T15:54:08.737Z,5.80
2018-12-06T15:56:37.166Z,5.80
2018-12-06T15:59:05.610Z,5.80
2018-12-06T16:01:34.035Z,5.80
2018-12-06T16:04:02.479Z,5.90
2018-12-06T16:06:30.902Z,5.90
2018-12-06T16:08:59.346Z,5.90
2018-12-06T16:11:27.927Z,5.90
2018-12-06T16:13:56.379Z,5.90
2018-12-06T16:16:24.800Z,5.90
2018-12-06T16:18:53.280Z,5.90
2018-12-06T16:21:21.700Z,5.90
2018-12-06T16:23:50.185Z,5.80
2018-12-06T16:26:18.619Z,5.90
2018-12-06T16:28:47.066Z,5.80
2018-12-06T16:31:15.512Z,5.80
2018-12-06T16:33:43.931Z,5.80
2018-12-06T16:36:12.369Z,5.80
2018-12-06T16:38:40.797Z,5.90
2018-12-06T16:41:09.302Z,6.00
2018-12-06T16:43:37.727Z,6.00
2018-12-06T16:46:06.186Z,6.00
2018-12-06T16:48:34.753Z,6.10
2018-12-06T16:51:03.193Z,6.10
2018-12-06T16:53:31.618Z,6.10
2018-12-06T16:56:00.062Z,6.20
2018-12-06T16:58:28.490Z,6.20
2018-12-06T17:00:57.057Z,6.20
2018-12-06T17:03:25.496Z,6.20
2018-12-06T17:05:53.941Z,6.20
2018-12-06T17:08:22.386Z,6.20
2018-12-06T17:10:50.840Z,6.20
2018-12-06T17:13:19.278Z,6.20
2018-12-06T17:15:47.773Z,6.20
2018-12-06T17:18:16.216Z,6.20
2018-12-06T17:20:44.662Z,6.20
2018-12-06T17:23:13.093Z,6.20
2018-12-06T17:25:41.530Z,6.20
2018-12-06T17:28:11.101Z,6.20
2018-12-06T17:30:39.647Z,6.20
2018-12-06T17:33:08.097Z,6.10
2018-12-06T17:35:36.566Z,6.10
2018-12-06T17:38:05.060Z,6.10
2018-12-06T17:40:33.502Z,6.20
2018-12-06T17:43:01.959Z,6.20
2018-12-06T17:45:31.245Z,6.20
2018-12-06T17:47:59.743Z,6.20
2018-12-06T17:50:28.174Z,6.20
2018-12-06T17:52:56.619Z,6.20
2018-12-06T17:55:25.066Z,6.20
2018-12-06T17:57:53.530Z,6.20
2018-12-06T18:00:21.949Z,6.20
2018-12-06T18:02:50.409Z,6.20
2018-12-06T18:05:18.834Z,6.20
2018-12-06T18:07:47.270Z,6.20
2018-12-06T18:10:15.964Z,6.30
2018-12-06T18:12:44.410Z,6.30
2018-12-06T18:15:12.841Z,6.30
2018-12-06T18:17:41.286Z,6.30
2018-12-06T18:20:09.945Z,6.30
2018-12-06T18:22:38.385Z,6.30
2018-12-06T18:25:06.936Z,6.30
2018-12-06T18:27:35.423Z,6.40
2018-12-06T18:30:04.678Z,6.40
2018-12-06T18:32:33.114Z,6.40
2018-12-06T18:35:01.547Z,6.40
2018-12-06T18:37:29.968Z,6.40
2018-12-06T18:39:58.420Z,6.40
2018-12-06T18:42:26.850Z,6.40
2018-12-06T18:44:55.290Z,6.50
2018-12-06T18:47:23.739Z,6.50
2018-12-06T18:49:52.190Z,6.50
2018-12-06T18:52:20.733Z,6.60
2018-12-06T18:54:49.181Z,6.60
2018-12-06T18:57:17.593Z,6.60
2018-12-06T18:59:46.032Z,6.60
2018-12-06T19:02:14.566Z,6.70
2018-12-06T19:04:42.998Z,6.70
2018-12-06T19:07:11.415Z,6.70
2018-12-06T19:09:39.882Z,6.70
2018-12-06T19:12:08.317Z,6.70
2018-12-06T19:14:36.845Z,6.70
2018-12-06T19:17:05.394Z,6.70
2018-12-06T19:19:33.826Z,6.70
2018-12-06T19:22:02.262Z,6.70
2018-12-06T19:24:30.701Z,6.70
2018-12-06T19:26:59.196Z,6.70
2018-12-06T19:29:27.636Z,6.60
2018-12-06T19:31:56.075Z,6.70
2018-12-06T19:34:24.512Z,6.60
2018-12-06T19:36:52.938Z,6.60
2018-12-06T19:39:21.365Z,6.60
2018-12-06T19:41:49.817Z,6.60
2018-12-06T19:44:18.266Z,6.60
2018-12-06T19:46:46.689Z,6.70
2018-12-06T19:49:15.150Z,6.70
2018-12-06T19:51:43.591Z,6.70
2018-12-06T19:54:12.170Z,6.70
2018-12-06T19:56:40.667Z,6.80
2018-12-06T19:59:09.225Z,6.90
2018-12-06T20:01:37.798Z,6.90
2018-12-06T20:04:06.225Z,6.90
2018-12-06T20:06:34.666Z,7.00
2018-12-06T20:09:04.627Z,7.00
2018-12-06T20:11:33.068Z,7.00
2018-12-06T20:14:01.610Z,7.10
2018-12-06T20:16:30.061Z,7.00
2018-12-06T20:18:58.492Z,7.10
2018-12-06T20:21:26.933Z,7.00
2018-12-06T20:23:55.391Z,7.00
2018-12-06T20:26:23.830Z,7.00
2018-12-06T20:28:52.254Z,6.90
2018-12-06T20:31:20.819Z,7.00
2018-12-06T20:33:49.238Z,7.00
2018-12-06T20:36:17.682Z,7.00
2018-12-06T20:38:46.105Z,7.00
2018-12-06T20:41:14.538Z,7.00
2018-12-06T20:43:42.959Z,7.10
2018-12-06T20:46:11.418Z,7.10
2018-12-06T20:48:39.858Z,7.10
2018-12-06T20:51:08.309Z,7.10
2018-12-06T20:53:36.730Z,7.10
2018-12-06T20:56:05.201Z,7.20
2018-12-06T20:58:33.627Z,7.10
2018-12-06T21:01:02.054Z,7.20
2018-12-06T21:03:30.494Z,7.20
2018-12-06T21:05:59.047Z,7.20
2018-12-06T21:08:27.539Z,7.20
2018-12-06T21:10:55.962Z,7.30
2018-12-06T21:13:24.402Z,7.30
2018-12-06T21:15:52.822Z,7.40
2018-12-06T21:18:21.254Z,7.50
2018-12-06T21:20:49.710Z,7.50
2018-12-06T21:23:18.158Z,7.60
2018-12-06T21:25:46.583Z,7.60
2018-12-06T21:28:15.015Z,7.70
2018-12-06T21:30:43.440Z,7.70
2018-12-06T21:33:11.874Z,7.70
2018-12-06T21:35:40.287Z,7.70
2018-12-06T21:38:08.730Z,7.70
2018-12-06T21:40:37.195Z,7.70
2018-12-06T21:43:05.641Z,7.70
2018-12-06T21:45:34.071Z,7.70
2018-12-06T21:48:02.574Z,7.80
2018-12-06T21:50:30.979Z,7.70
2018-12-06T21:52:59.414Z,7.80
2018-12-06T21:55:27.816Z,7.80
2018-12-06T21:57:56.238Z,7.90
2018-12-06T22:00:24.971Z,8.00
2018-12-06T22:02:53.398Z,8.10
2018-12-06T22:05:21.843Z,8.20
2018-12-06T22:07:50.267Z,8.30
2018-12-06T22:10:18.678Z,8.40
2018-12-06T22:12:47.106Z,8.40
2018-12-06T22:15:15.510Z,8.30
2018-12-06T22:17:43.923Z,8.30
2018-12-06T22:20:12.352Z,8.30
2018-12-06T22:22:40.830Z,8.30
2018-12-06T22:25:09.282Z,8.30
2018-12-06T22:27:37.706Z,8.30
2018-12-06T22:30:06.660Z,8.30
2018-12-06T22:32:35.082Z,8.30
2018-12-06T22:35:03.552Z,8.30
2018-12-06T22:37:31.983Z,8.30
2018-12-06T22:40:00.402Z,8.40
2018-12-06T22:42:28.900Z,8.40
2018-12-06T22:46:05.554Z,8.40
2018-12-06T22:48:33.976Z,8.40
2018-12-06T22:51:02.402Z,8.40
2018-12-06T22:53:30.879Z,8.40
2018-12-06T22:55:59.361Z,8.40
2018-12-06T22:58:27.885Z,8.40
2018-12-06T23:00:57.914Z,8.40
2018-12-06T23:03:26.866Z,8.40
2018-12-06T23:05:55.438Z,8.40
2018-12-06T23:08:24.025Z,8.40
2018-12-06T23:10:52.706Z,8.60
2018-12-06T23:13:21.127Z,8.70
2018-12-06T23:15:49.562Z,8.80
2018-12-06T23:18:17.973Z,8.80
2018-12-06T23:20:46.395Z,8.80
2018-12-06T23:23:14.837Z,8.90
2018-12-06T23:25:43.260Z,8.90
2018-12-06T23:28:13.038Z,8.90
2018-12-06T23:30:41.764Z,8.90
2018-12-06T23:33:10.167Z,8.90
2018-12-06T23:35:38.606Z,8.90
2018-12-06T23:38:07.015Z,8.90
2018-12-06T23:40:35.485Z,8.90
2018-12-06T23:43:04.019Z,8.90
2018-12-06T23:45:32.437Z,8.80
2018-12-06T23:48:00.930Z,8.80
2018-12-06T23:50:29.399Z,8.80
2018-12-06T23:52:57.804Z,8.80
2018-12-06T23:55:26.305Z,8.70
2018-12-06T23:57:54.710Z,8.70
